createdAt,value
2019-03-11T00:01:01.500Z,3.10
2019-03-11T00:03:31.260Z,2.93
2019-03-11T00:06:01.121Z,3.20
2019-03-11T00:08:30.883Z,2.73
2019-03-11T00:11:00.644Z,3.23
2019-03-11T00:13:30.395Z,3.67
2019-03-11T00:16:00.179Z,3.40
2019-03-11T00:18:29.945Z,3.40
2019-03-11T00:21:01.171Z,2.73
2019-03-11T00:23:31.035Z,4.13
2019-03-11T00:26:00.826Z,3.30
2019-03-11T00:28:30.586Z,3.53
2019-03-11T00:31:00.339Z,3.57
2019-03-11T00:33:30.090Z,3.73
2019-03-11T00:35:59.823Z,5.50
2019-03-11T00:38:29.589Z,6.20
2019-03-11T00:40:59.324Z,6.63
2019-03-11T00:43:29.081Z,5.20
2019-03-11T00:45:58.803Z,6.80
2019-03-11T00:48:28.573Z,5.30
2019-03-11T00:50:58.307Z,4.27
2019-03-11T00:53:28.054Z,4.10
2019-03-11T00:55:57.776Z,3.87
2019-03-11T00:58:27.530Z,5.07
2019-03-11T01:00:57.251Z,4.03
2019-03-11T01:03:26.994Z,5.90
2019-03-11T01:05:56.724Z,5.70
2019-03-11T01:08:29.041Z,5.90
2019-03-11T01:10:57.904Z,5.70
2019-03-11T01:13:27.670Z,4.37
2019-03-11T01:15:57.482Z,4.50
2019-03-11T01:18:27.277Z,3.97
2019-03-11T01:20:57.108Z,4.20
2019-03-11T01:23:26.890Z,4.83
2019-03-11T01:25:56.656Z,3.27
2019-03-11T01:28:26.415Z,3.20
2019-03-11T01:30:56.167Z,4.13
2019-03-11T01:33:25.889Z,2.73
2019-03-11T01:35:55.642Z,3.70
2019-03-11T01:38:25.387Z,3.80
2019-03-11T01:40:55.148Z,3.47
2019-03-11T01:43:24.874Z,4.30
2019-03-11T01:45:54.638Z,3.53
2019-03-11T01:48:24.367Z,3.10
2019-03-11T01:50:54.159Z,5.47
2019-03-11T01:53:23.878Z,3.47
2019-03-11T01:55:53.678Z,10.17
2019-03-11T01:58:23.403Z,6.90
2019-03-11T02:00:53.161Z,8.33
2019-03-11T02:03:22.932Z,4.90
2019-03-11T02:05:52.711Z,6.80
2019-03-11T02:08:22.465Z,4.47
2019-03-11T02:10:52.211Z,3.73
2019-03-11T02:13:21.985Z,4.40
2019-03-11T02:15:51.709Z,4.13
2019-03-11T02:18:21.757Z,5.77
2019-03-11T02:20:51.536Z,5.17
2019-03-11T02:23:21.295Z,3.27
2019-03-11T02:25:51.049Z,3.80
2019-03-11T02:28:20.801Z,3.70
2019-03-11T02:30:50.532Z,3.77
2019-03-11T02:33:20.293Z,3.70
2019-03-11T02:35:50.071Z,3.53
2019-03-11T02:38:19.826Z,3.13
2019-03-11T02:40:49.596Z,3.30
2019-03-11T02:43:19.352Z,3.80
2019-03-11T02:45:49.106Z,3.90
2019-03-11T02:48:18.957Z,4.87
2019-03-11T02:50:48.743Z,4.57
2019-03-11T02:53:18.497Z,3.97
2019-03-11T02:55:50.965Z,4.23
2019-03-11T02:58:19.721Z,4.27
2019-03-11T03:00:51.082Z,3.63
2019-03-11T03:03:38.957Z,4.47
2019-03-11T03:06:10.327Z,4.23
2019-03-11T03:08:40.287Z,4.20
2019-03-11T03:11:10.086Z,4.60
2019-03-11T03:13:39.857Z,5.00
2019-03-11T03:16:09.608Z,5.40
2019-03-11T03:18:39.363Z,4.93
2019-03-11T03:21:09.243Z,4.97
2019-03-11T03:23:38.996Z,4.60
2019-03-11T03:26:08.773Z,5.77
2019-03-11T03:28:38.538Z,6.00
2019-03-11T03:31:08.322Z,5.93
2019-03-11T03:33:38.137Z,5.13
2019-03-11T03:36:07.970Z,5.00
2019-03-11T03:38:37.749Z,4.10
2019-03-11T03:41:07.612Z,3.57
2019-03-11T03:43:37.381Z,4.00
2019-03-11T03:46:17.960Z,4.23
2019-03-11T03:48:38.711Z,3.67
2019-03-11T03:51:08.600Z,3.73
2019-03-11T03:53:38.381Z,4.20
2019-03-11T03:56:08.172Z,3.67
2019-03-11T03:58:37.983Z,4.70
2019-03-11T04:01:07.740Z,3.50
2019-03-11T04:03:37.508Z,4.77
2019-03-11T04:06:07.244Z,4.77
2019-03-11T04:08:37.005Z,4.37
2019-03-11T04:11:06.739Z,4.97
2019-03-11T04:13:36.513Z,5.30
2019-03-11T04:16:06.252Z,5.77
2019-03-11T04:18:52.759Z,5.30
2019-03-11T04:21:22.533Z,4.83
2019-03-11T04:23:52.296Z,5.97
2019-03-11T04:26:22.963Z,4.50
2019-03-11T04:28:52.733Z,4.20
2019-03-11T04:31:22.495Z,4.47
2019-03-11T04:33:52.261Z,4.37
2019-03-11T04:36:22.034Z,8.20
2019-03-11T04:38:51.796Z,6.27
2019-03-11T04:41:21.568Z,6.53
2019-03-11T04:43:51.333Z,5.47
2019-03-11T04:46:21.094Z,5.53
2019-03-11T04:48:50.857Z,5.50
2019-03-11T04:51:20.632Z,6.20
2019-03-11T04:53:50.401Z,5.90
2019-03-11T04:56:20.170Z,6.60
2019-03-11T04:58:49.945Z,4.63
2019-03-11T05:01:19.710Z,4.37
2019-03-11T05:03:49.501Z,4.40
2019-03-11T05:06:19.254Z,4.70
2019-03-11T05:08:49.015Z,4.93
2019-03-11T05:11:18.784Z,4.53
2019-03-11T05:13:48.642Z,4.60
2019-03-11T05:16:18.401Z,7.47
2019-03-11T05:18:48.167Z,8.33
2019-03-11T05:21:19.499Z,7.47
2019-03-11T05:23:55.911Z,6.10
2019-03-11T05:26:25.710Z,7.63
2019-03-11T05:28:55.517Z,13.13
2019-03-11T05:31:25.334Z,13.60
2019-03-11T05:33:55.131Z,8.70
2019-03-11T05:36:24.911Z,12.83
2019-03-11T05:38:54.719Z,9.50
2019-03-11T05:41:24.490Z,9.93
2019-03-11T05:43:54.258Z,8.70
2019-03-11T05:46:24.035Z,12.00
2019-03-11T05:48:53.784Z,10.40
2019-03-11T05:51:31.353Z,9.13
2019-03-11T05:53:55.022Z,10.87
2019-03-11T05:56:24.779Z,8.80
2019-03-11T05:58:54.562Z,15.83
2019-03-11T06:01:24.334Z,9.90
2019-03-11T06:03:54.105Z,6.37
2019-03-11T06:06:23.867Z,18.47
2019-03-11T06:08:53.649Z,14.07
2019-03-11T06:11:23.428Z,6.03
2019-03-11T06:13:53.186Z,7.23
2019-03-11T06:16:22.947Z,11.50
2019-03-11T06:18:52.727Z,11.40
2019-03-11T06:21:24.071Z,7.87
2019-03-11T06:23:53.832Z,7.03
2019-03-11T06:26:23.596Z,11.10
2019-03-11T06:28:53.377Z,11.13
2019-03-11T06:31:23.138Z,7.87
2019-03-11T06:33:52.908Z,8.03
2019-03-11T06:36:22.672Z,6.87
2019-03-11T06:38:52.440Z,19.07
2019-03-11T06:41:22.212Z,9.27
2019-03-11T06:43:51.973Z,9.57
2019-03-11T06:46:22.139Z,8.60
2019-03-11T06:48:51.974Z,12.97
2019-03-11T06:51:21.763Z,22.63
2019-03-11T06:53:51.535Z,8.23
2019-03-11T06:56:21.303Z,10.10
2019-03-11T06:58:51.090Z,5.83
2019-03-11T07:01:20.832Z,7.47
2019-03-11T07:03:50.596Z,7.27
2019-03-11T07:06:20.369Z,7.57
2019-03-11T07:08:50.141Z,4.90
2019-03-11T07:11:19.898Z,7.43
2019-03-11T07:13:50.053Z,6.00
2019-03-11T07:16:20.014Z,9.83
2019-03-11T07:18:49.769Z,8.03
2019-03-11T07:21:19.543Z,9.27
2019-03-11T07:23:49.308Z,18.30
2019-03-11T07:26:19.139Z,6.27
2019-03-11T07:28:48.938Z,11.40
2019-03-11T07:31:18.754Z,5.63
2019-03-11T07:33:48.511Z,19.37
2019-03-11T07:36:18.744Z,7.43
2019-03-11T07:38:48.516Z,12.40
2019-03-11T07:41:18.291Z,6.20
2019-03-11T07:43:48.095Z,13.33
2019-03-11T07:46:17.871Z,17.27
2019-03-11T07:48:47.681Z,14.53
2019-03-11T07:51:17.445Z,3.27
2019-03-11T07:53:47.205Z,17.83
2019-03-11T07:56:16.980Z,26.30
2019-03-11T07:58:46.720Z,11.83
2019-03-11T08:01:16.499Z,8.40
2019-03-11T08:03:46.247Z,20.83
2019-03-11T08:06:18.977Z,11.77
2019-03-11T08:08:47.453Z,7.13
2019-03-11T08:11:17.220Z,4.30
2019-03-11T08:13:47.542Z,7.30
2019-03-11T08:16:18.057Z,7.30
2019-03-11T08:18:47.855Z,16.93
2019-03-11T08:21:17.616Z,40.73
2019-03-11T08:23:47.384Z,16.43
2019-03-11T08:26:17.161Z,72.30
2019-03-11T08:28:47.036Z,86.53
2019-03-11T08:31:16.816Z,16.20
2019-03-11T08:33:46.592Z,8.50
2019-03-11T08:36:16.467Z,7.67
2019-03-11T08:38:46.239Z,7.03
2019-03-11T08:41:16.002Z,8.83
2019-03-11T08:43:45.755Z,4.77
2019-03-11T08:46:15.534Z,13.97
2019-03-11T08:48:45.354Z,8.57
2019-03-11T08:51:15.133Z,11.93
2019-03-11T08:53:44.915Z,7.20
2019-03-11T08:56:14.711Z,7.23
2019-03-11T08:58:44.487Z,6.20
2019-03-11T09:01:14.280Z,8.37
2019-03-11T09:03:44.038Z,7.30
2019-03-11T09:06:13.795Z,7.60
2019-03-11T09:08:43.554Z,6.83
2019-03-11T09:11:13.290Z,6.03
2019-03-11T09:13:43.066Z,12.13
2019-03-11T09:16:12.796Z,8.07
2019-03-11T09:18:42.561Z,7.40
2019-03-11T09:21:12.295Z,10.00
2019-03-11T09:23:42.075Z,10.93
2019-03-11T09:26:11.815Z,10.03
2019-03-11T09:28:41.582Z,8.10
2019-03-11T09:31:11.322Z,9.20
2019-03-11T09:33:41.704Z,6.70
2019-03-11T09:36:11.551Z,6.30
2019-03-11T09:38:41.363Z,7.90
2019-03-11T09:41:11.093Z,8.57
2019-03-11T09:43:40.856Z,6.70
2019-03-11T09:46:10.635Z,17.23
2019-03-11T09:48:40.882Z,27.37
2019-03-11T09:51:10.676Z,21.17
2019-03-11T09:53:40.470Z,9.67
2019-03-11T09:56:10.237Z,9.47
2019-03-11T09:58:40.026Z,6.83
2019-03-11T10:01:09.782Z,6.40
2019-03-11T10:03:39.522Z,6.17
2019-03-11T10:06:09.296Z,7.97
2019-03-11T10:08:39.080Z,9.77
2019-03-11T10:11:08.851Z,6.50
2019-03-11T10:13:38.581Z,6.77
2019-03-11T10:16:08.378Z,7.07
2019-03-11T10:18:38.118Z,6.47
2019-03-11T10:21:07.900Z,6.87
2019-03-11T10:23:37.671Z,6.53
2019-03-11T10:26:07.461Z,6.87
2019-03-11T10:28:37.227Z,7.07
2019-03-11T10:31:07.003Z,6.70
2019-03-11T10:33:36.773Z,6.00
2019-03-11T10:36:06.510Z,5.80
2019-03-11T10:38:36.307Z,8.33
2019-03-11T10:41:06.142Z,7.33
2019-03-11T10:43:36.106Z,8.23
2019-03-11T10:46:05.844Z,8.43
2019-03-11T10:48:37.553Z,6.37
2019-03-11T10:51:07.084Z,5.73
2019-03-11T10:53:36.881Z,5.33
2019-03-11T10:56:06.643Z,9.43
2019-03-11T10:58:36.439Z,36.43
2019-03-11T11:01:06.201Z,32.30
2019-03-11T11:03:35.965Z,18.63
2019-03-11T11:06:05.746Z,12.53
2019-03-11T11:08:35.679Z,6.23
2019-03-11T11:11:05.461Z,16.53
2019-03-11T11:13:37.904Z,9.17
2019-03-11T11:16:07.685Z,6.73
2019-03-11T11:18:37.407Z,14.20
2019-03-11T11:21:07.173Z,6.97
2019-03-11T11:23:36.916Z,6.10
2019-03-11T11:26:06.719Z,8.97
2019-03-11T11:28:36.449Z,5.87
2019-03-11T11:31:06.235Z,6.10
2019-03-11T11:33:35.963Z,5.27
2019-03-11T11:36:05.744Z,8.00
2019-03-11T11:38:35.503Z,6.67
2019-03-11T11:41:05.285Z,8.67
2019-03-11T11:43:35.046Z,6.40
2019-03-11T11:46:04.810Z,6.73
2019-03-11T11:48:34.582Z,7.47
2019-03-11T11:51:04.306Z,6.00
2019-03-11T11:53:34.071Z,9.93
2019-03-11T11:56:03.805Z,5.00
2019-03-11T11:58:33.571Z,8.43
2019-03-11T12:01:03.412Z,10.63
2019-03-11T12:03:33.183Z,9.30
2019-03-11T12:06:02.946Z,6.17
2019-03-11T12:08:32.738Z,9.60
2019-03-11T12:11:02.490Z,6.60
2019-03-11T12:13:32.259Z,13.47
2019-03-11T12:16:02.104Z,4.83
2019-03-11T12:18:32.148Z,6.30
2019-03-11T12:21:02.013Z,6.33
2019-03-11T12:23:32.269Z,6.93
2019-03-11T12:26:02.077Z,7.00
2019-03-11T12:28:31.960Z,6.73
2019-03-11T12:31:01.835Z,7.27
2019-03-11T12:33:31.642Z,4.30
2019-03-11T12:36:01.412Z,4.80
2019-03-11T12:38:31.220Z,6.23
2019-03-11T12:41:01.082Z,5.67
2019-03-11T12:43:30.861Z,7.17
2019-03-11T12:46:00.605Z,3.87
2019-03-11T12:48:30.356Z,5.27
2019-03-11T12:51:00.117Z,9.93
2019-03-11T12:53:29.858Z,13.73
2019-03-11T12:55:59.624Z,14.37
2019-03-11T12:58:40.777Z,6.53
2019-03-11T13:01:03.441Z,6.63
2019-03-11T13:03:32.326Z,3.70
2019-03-11T13:06:02.091Z,2.10
2019-03-11T13:08:31.857Z,3.37
2019-03-11T13:11:01.635Z,5.03
2019-03-11T13:13:31.414Z,8.77
2019-03-11T13:16:01.905Z,10.03
2019-03-11T13:18:34.436Z,8.47
2019-03-11T13:21:16.287Z,11.90
2019-03-11T13:23:46.135Z,60.63
2019-03-11T13:26:15.919Z,33.17
2019-03-11T13:28:45.686Z,31.77
2019-03-11T13:31:15.450Z,17.60
2019-03-11T13:33:45.229Z,8.60
2019-03-11T13:36:14.971Z,10.40
2019-03-11T13:38:44.771Z,15.17
2019-03-11T13:41:14.525Z,20.17
2019-03-11T13:43:44.499Z,26.20
2019-03-11T13:46:14.375Z,30.73
2019-03-11T13:48:44.168Z,23.80
2019-03-11T13:51:13.939Z,25.97
2019-03-11T13:53:43.731Z,10.63
2019-03-11T13:56:13.558Z,15.07
2019-03-11T13:58:43.324Z,15.47
2019-03-11T14:01:14.661Z,5.87
2019-03-11T14:03:44.389Z,5.30
2019-03-11T14:06:14.217Z,2.83
2019-03-11T14:08:44.004Z,3.03
2019-03-11T14:11:13.788Z,3.07
2019-03-11T14:13:43.558Z,3.77
2019-03-11T14:16:13.324Z,4.73
2019-03-11T14:18:43.085Z,5.90
2019-03-11T14:21:12.825Z,4.03
2019-03-11T14:23:42.612Z,12.13
2019-03-11T14:26:12.349Z,14.10
2019-03-11T14:28:42.125Z,9.20
2019-03-11T14:31:11.897Z,7.07
2019-03-11T14:33:41.677Z,2.33
2019-03-11T14:36:12.879Z,6.20
2019-03-11T14:38:42.663Z,2.60
2019-03-11T14:41:12.426Z,1.17
2019-03-11T14:43:42.197Z,1.10
2019-03-11T14:46:11.961Z,1.20
2019-03-11T14:48:41.707Z,1.80
2019-03-11T14:51:11.486Z,1.43
2019-03-11T14:53:41.211Z,1.37
2019-03-11T14:56:10.968Z,1.30
2019-03-11T14:58:40.728Z,4.47
2019-03-11T15:01:10.492Z,1.70
2019-03-11T15:03:40.565Z,1.00
2019-03-11T15:06:10.291Z,2.13
2019-03-11T15:08:40.077Z,2.97
2019-03-11T15:11:09.812Z,3.20
2019-03-11T15:13:39.609Z,2.00
2019-03-11T15:16:09.351Z,6.00
2019-03-11T15:18:39.118Z,3.87
2019-03-11T15:21:08.889Z,2.80
2019-03-11T15:23:38.684Z,2.60
2019-03-11T15:26:08.451Z,1.87
2019-03-11T15:28:38.203Z,1.90
2019-03-11T15:31:10.771Z,4.80
2019-03-11T15:33:39.409Z,1.70
2019-03-11T15:36:09.196Z,2.63
2019-03-11T15:38:38.929Z,9.20
2019-03-11T15:41:09.821Z,7.10
2019-03-11T15:43:39.566Z,6.53
2019-03-11T15:46:09.342Z,8.10
2019-03-11T15:48:39.112Z,25.57
2019-03-11T15:51:08.960Z,19.57
2019-03-11T15:53:38.746Z,25.93
2019-03-11T15:56:08.512Z,18.07
2019-03-11T15:58:38.285Z,23.33
2019-03-11T16:01:08.053Z,15.33
2019-03-11T16:03:37.832Z,14.90
2019-03-11T16:06:07.572Z,10.17
2019-03-11T16:08:37.385Z,10.13
2019-03-11T16:11:07.128Z,7.87
2019-03-11T16:13:36.898Z,46.63
2019-03-11T16:16:06.681Z,30.57
2019-03-11T16:18:36.471Z,63.80
2019-03-11T16:21:06.255Z,95.50
2019-03-11T16:23:36.029Z,30.20
2019-03-11T16:26:05.795Z,18.37
2019-03-11T16:28:35.533Z,17.67
2019-03-11T16:31:05.344Z,33.40
2019-03-11T16:33:35.086Z,22.67
2019-03-11T16:36:04.864Z,37.53
2019-03-11T16:38:34.635Z,49.03
2019-03-11T16:41:04.382Z,41.63
2019-03-11T16:43:34.181Z,20.63
2019-03-11T16:46:04.650Z,25.43
2019-03-11T16:48:34.663Z,42.20
2019-03-11T16:51:04.414Z,37.20
2019-03-11T16:53:34.187Z,40.30
2019-03-11T16:56:04.249Z,49.47
2019-03-11T16:58:34.043Z,54.30
2019-03-11T17:01:05.400Z,103.70
2019-03-11T17:03:35.218Z,84.73
2019-03-11T17:06:04.998Z,54.00
2019-03-11T17:08:34.767Z,58.13
2019-03-11T17:11:04.544Z,36.27
2019-03-11T17:13:34.270Z,25.20
2019-03-11T17:16:04.119Z,24.47
2019-03-11T17:18:33.859Z,29.30
2019-03-11T17:21:03.621Z,24.00
2019-03-11T17:23:33.494Z,22.53
2019-03-11T17:26:03.315Z,27.27
2019-03-11T17:28:34.100Z,33.40
2019-03-11T17:31:04.610Z,31.73
2019-03-11T17:33:34.838Z,35.70
2019-03-11T17:36:04.668Z,28.00
2019-03-11T17:38:34.440Z,23.80
2019-03-11T17:41:04.289Z,22.90
2019-03-11T17:43:34.210Z,37.60
2019-03-11T17:46:05.059Z,32.27
2019-03-11T17:48:36.579Z,24.53
2019-03-11T17:51:06.444Z,20.67
2019-03-11T17:53:36.539Z,25.10
2019-03-11T17:56:06.586Z,38.00
2019-03-11T17:58:37.925Z,26.13
2019-03-11T18:01:07.862Z,19.67
2019-03-11T18:03:38.361Z,23.17
2019-03-11T18:06:11.972Z,19.87
2019-03-11T18:08:42.451Z,18.03
2019-03-11T18:11:12.460Z,16.37
2019-03-11T18:13:48.015Z,16.70
2019-03-11T18:16:18.443Z,16.90
2019-03-11T18:18:50.137Z,30.57
2019-03-11T18:21:20.402Z,22.10
2019-03-11T18:23:50.413Z,12.80
2019-03-11T18:26:23.205Z,24.77
2019-03-11T18:28:53.020Z,13.90
2019-03-11T18:31:23.279Z,36.37
2019-03-11T18:33:53.164Z,47.87
2019-03-11T18:36:23.307Z,27.23
2019-03-11T18:38:53.172Z,16.50
2019-03-11T18:41:23.125Z,26.53
2019-03-11T18:44:00.914Z,25.33
2019-03-11T18:46:27.545Z,45.07
2019-03-11T18:49:00.568Z,28.13
2019-03-11T18:51:31.208Z,42.37
2019-03-11T18:54:05.595Z,40.40
2019-03-11T18:56:37.659Z,52.23
2019-03-11T18:59:07.696Z,38.13
2019-03-11T19:01:39.436Z,49.43
2019-03-11T19:04:27.926Z,44.57
2019-03-11T19:06:57.890Z,35.77
2019-03-11T19:09:30.756Z,27.33
2019-03-11T19:12:00.739Z,28.13
2019-03-11T19:14:59.006Z,31.97
2019-03-11T19:17:34.955Z,16.43
2019-03-11T19:20:09.724Z,23.73
2019-03-11T19:22:39.565Z,10.93
2019-03-11T19:25:10.843Z,18.30
2019-03-11T19:27:40.809Z,20.80
2019-03-11T19:30:19.068Z,28.60
2019-03-11T19:32:50.373Z,27.73
2019-03-11T19:35:20.282Z,17.87
2019-03-11T19:37:50.608Z,22.80
2019-03-11T19:40:22.961Z,21.40
2019-03-11T19:42:56.545Z,35.90
2019-03-11T19:45:26.934Z,30.37
2019-03-11T19:47:58.090Z,28.10
2019-03-11T19:50:32.557Z,25.13
2019-03-11T19:53:07.422Z,21.90
2019-03-11T19:55:44.056Z,14.43
2019-03-11T19:58:15.623Z,21.93
2019-03-11T20:00:46.182Z,22.40
2019-03-11T20:03:26.399Z,33.47
2019-03-11T20:05:47.853Z,23.60
2019-03-11T20:08:18.250Z,31.30
2019-03-11T20:10:48.279Z,24.80
2019-03-11T20:13:18.837Z,18.03
2019-03-11T20:15:49.012Z,13.17
2019-03-11T20:18:18.977Z,13.23
2019-03-11T20:20:50.646Z,23.90
2019-03-11T20:23:20.754Z,25.73
2019-03-11T20:25:50.796Z,17.80
2019-03-11T20:28:20.866Z,20.13
2019-03-11T20:30:51.249Z,12.90
2019-03-11T20:33:21.301Z,16.97
2019-03-11T20:35:51.525Z,12.97
2019-03-11T20:38:21.433Z,10.87
2019-03-11T20:40:51.954Z,15.20
2019-03-11T20:43:22.191Z,11.87
2019-03-11T20:45:52.302Z,10.17
2019-03-11T20:48:22.303Z,12.53
2019-03-11T20:50:52.248Z,8.17
2019-03-11T20:53:22.404Z,11.00
2019-03-11T20:55:52.766Z,14.43
2019-03-11T20:58:42.427Z,14.33
2019-03-11T21:01:12.475Z,12.90
2019-03-11T21:03:42.382Z,10.63
2019-03-11T21:06:12.598Z,11.37
2019-03-11T21:08:45.449Z,11.43
2019-03-11T21:11:14.553Z,9.87
2019-03-11T21:13:44.490Z,11.83
2019-03-11T21:16:15.132Z,11.17
2019-03-11T21:18:46.510Z,8.87
2019-03-11T21:21:17.367Z,11.47
2019-03-11T21:24:01.275Z,10.57
2019-03-11T21:26:21.515Z,9.70
2019-03-11T21:28:52.694Z,14.43
2019-03-11T21:31:23.743Z,10.50
2019-03-11T21:33:58.755Z,11.87
2019-03-11T21:36:28.143Z,12.07
2019-03-11T21:38:59.367Z,12.83
2019-03-11T21:41:32.529Z,14.23
2019-03-11T21:44:03.626Z,12.50
2019-03-11T21:46:35.426Z,16.60
2019-03-11T21:49:06.114Z,10.67
2019-03-11T21:51:36.450Z,10.77
2019-03-11T21:54:06.672Z,10.57
2019-03-11T21:56:36.484Z,10.27
2019-03-11T21:59:06.288Z,22.10
2019-03-11T22:01:36.094Z,12.87
2019-03-11T22:04:05.845Z,13.53
2019-03-11T22:06:35.602Z,13.17
2019-03-11T22:09:06.439Z,15.47
2019-03-11T22:11:36.211Z,8.90
2019-03-11T22:14:05.952Z,10.03
2019-03-11T22:16:35.724Z,9.67
2019-03-11T22:19:05.492Z,10.83
2019-03-11T22:21:35.260Z,7.37
2019-03-11T22:24:05.032Z,9.77
2019-03-11T22:26:34.808Z,7.37
2019-03-11T22:29:04.577Z,9.43
2019-03-11T22:31:34.357Z,10.93
2019-03-11T22:34:04.095Z,8.93
2019-03-11T22:36:33.857Z,8.07
2019-03-11T22:39:04.235Z,12.53
2019-03-11T22:41:34.014Z,11.73
2019-03-11T22:44:03.798Z,12.20
2019-03-11T22:46:33.578Z,15.77
2019-03-11T22:49:03.348Z,11.33
2019-03-11T22:51:33.105Z,8.27
2019-03-11T22:54:02.882Z,9.47
2019-03-11T22:56:32.621Z,8.83
2019-03-11T22:59:02.385Z,10.73
2019-03-11T23:01:32.165Z,10.37
2019-03-11T23:04:01.916Z,6.87
2019-03-11T23:06:31.681Z,9.20
2019-03-11T23:09:01.442Z,10.00
2019-03-11T23:11:31.219Z,9.37
2019-03-11T23:14:00.984Z,8.83
2019-03-11T23:16:30.746Z,13.93
2019-03-11T23:19:00.523Z,11.67
2019-03-11T23:21:30.289Z,8.03
2019-03-11T23:24:00.050Z,6.57
2019-03-11T23:26:29.824Z,8.87
2019-03-11T23:28:59.598Z,9.07
2019-03-11T23:31:29.358Z,8.20
2019-03-11T23:33:59.116Z,8.77
2019-03-11T23:36:28.891Z,11.77
2019-03-11T23:38:58.649Z,6.23
2019-03-11T23:41:29.216Z,9.10
2019-03-11T23:43:59.170Z,8.90
2019-03-11T23:46:28.927Z,7.50
2019-03-11T23:48:58.700Z,7.97
2019-03-11T23:51:28.457Z,9.57
2019-03-11T23:53:58.324Z,8.83
2019-03-11T23:56:28.213Z,9.73
2019-03-11T23:58:57.986Z,9.97
